Harbor King — WCY3492 — position and weather

sailwx.info

Track history (hours):
 
Tides and Currents Weather Stations Pressure Air Temp Water Temp Dewpoint Dewpoint Depression Visibility Wind Speed Wind Dir Waves Ship Positions

Harbor King

Owner: Golden Gate Scenic Steamship Corp, SAN FRANCISCO, CA. More information available from US FCC via Universal Licensing System and Coast Guard Vessel Documentation Center.

Last reported at 2018-Jun-18 03:45 UTC. Time now 2018-Jun-21 22:09 UTC.
Position N 33°44' W 118°17'.

Length 20 m; draft 2 m.

Type: Passenger vessel. MMSI: 366975770.

Date/timePositionNaut miles runAvg speedWind from/ knotsBaromVisibWave heightAir tempDewpointWater temp
2018-Jun-18 03:45N 33°44' W 118°17'1 2.9
2018-Jun-18 03:30N 33°45' W 118°16'1 1.5
2018-Jun-18 03:00N 33°44' W 118°17'1 1.7
2018-Jun-18 02:30N 33°43' W 118°16'1 1.7
2018-Jun-18 02:00N 33°44' W 118°17'0 0.6
2018-Jun-18 01:30N 33°44' W 118°17'0 0.6
2018-Jun-18 01:00N 33°44' W 118°17'0 0.0
2018-Jun-18 00:30N 33°44' W 118°17'1 2.6
2018-Jun-18 00:00N 33°43' W 118°16'1 2.7
2018-Jun-17 23:30N 33°44' W 118°17'1 2.8
2018-Jun-17 23:00N 33°43' W 118°16'1 2.8
2018-Jun-17 22:30N 33°44' W 118°17'1 2.8
2018-Jun-17 22:00N 33°43' W 118°16'1 2.8
2018-Jun-17 21:30N 33°44' W 118°17'1 2.8
2018-Jun-17 21:00N 33°43' W 118°16'1 2.8
2018-Jun-17 20:30N 33°44' W 118°17'0 0.0
2018-Jun-17 20:00N 33°44' W 118°17'1 2.9
2018-Jun-17 19:30N 33°43' W 118°16'1 2.9
2018-Jun-17 19:00N 33°44' W 118°17'1 2.8
2018-Jun-17 18:30N 33°43' W 118°16'1 2.9
2018-Jun-17 18:00N 33°44' W 118°17'0 0.0
2018-Jun-17 17:30N 33°44' W 118°17'0 0.0
2018-Jun-17 17:00N 33°44' W 118°17'2 3.9
2018-Jun-17 16:30N 33°43' W 118°15'2 0.2
2018-Jun-17 03:21N 33°44' W 118°17'0 0.0
2018-Jun-17 03:00N 33°44' W 118°17'1 2.2
2018-Jun-17 02:30N 33°43' W 118°16'1 2.2
2018-Jun-17 02:00N 33°44' W 118°17'0 0.0
2018-Jun-17 01:30N 33°44' W 118°17'1 2.6
2018-Jun-17 01:00N 33°43' W 118°16'1 2.6
2018-Jun-17 00:30N 33°44' W 118°17'0 0.0
2018-Jun-17 00:00N 33°44' W 118°17'1 2.9
2018-Jun-16 23:30N 33°43' W 118°16'1 2.8
2018-Jun-16 23:00N 33°44' W 118°17'0 0.0
2018-Jun-16 22:30N 33°44' W 118°17'1 2.8
2018-Jun-16 22:00N 33°43' W 118°16'1 2.8
2018-Jun-16 21:30N 33°44' W 118°17'0 0.0
2018-Jun-16 21:00N 33°44' W 118°17'1 2.8
2018-Jun-16 20:30N 33°43' W 118°16'1 2.8
2018-Jun-16 20:00N 33°44' W 118°17'1 1.8
2018-Jun-16 19:30N 33°43' W 118°16'1 1.8
2018-Jun-16 19:00N 33°44' W 118°17'1 2.8
2018-Jun-16 18:30N 33°43' W 118°16'1 2.9
2018-Jun-16 18:00N 33°44' W 118°17'4 7.5
2018-Jun-16 17:30N 33°40' W 118°15'2 4.2
2018-Jun-16 16:59N 33°43' W 118°15'2 3.8
2018-Jun-16 16:30N 33°44' W 118°17'  
2018-Jun-11 04:05N 33°44' W 118°17'0 0.0
2018-Jun-11 04:00N 33°44' W 118°17'1 1.6
2018-Jun-11 03:30N 33°44' W 118°16'1 1.6
2018-Jun-11 03:00N 33°44' W 118°17'1 1.5
2018-Jun-11 02:30N 33°43' W 118°16'1 1.6
2018-Jun-11 02:00N 33°44' W 118°17'0 0.6
2018-Jun-11 01:30N 33°44' W 118°17'0 0.5
2018-Jun-11 01:00N 33°44' W 118°17'0 0.0
2018-Jun-11 00:30N 33°44' W 118°17'1 2.9
2018-Jun-11 00:00N 33°43' W 118°16'1 2.9
2018-Jun-10 23:30N 33°44' W 118°17'1 2.7
2018-Jun-10 23:00N 33°43' W 118°16'1 2.7
2018-Jun-10 22:30N 33°44' W 118°17'1 2.8
2018-Jun-10 22:00N 33°43' W 118°16'1 2.7
2018-Jun-10 21:30N 33°44' W 118°17'1 2.6
2018-Jun-10 21:00N 33°43' W 118°16'1 2.6
2018-Jun-10 20:30N 33°44' W 118°17'0 0.0
2018-Jun-10 20:00N 33°44' W 118°17'1 2.8
2018-Jun-10 19:30N 33°43' W 118°16'1 2.9
2018-Jun-10 19:00N 33°44' W 118°17'1 2.8
2018-Jun-10 18:30N 33°43' W 118°16'1 0.1
2018-Jun-10 03:27N 33°44' W 118°17'1 1.5
2018-Jun-10 03:00N 33°45' W 118°16'1 2.0
2018-Jun-10 02:31N 33°44' W 118°16'0 0.7
2018-Jun-10 02:01N 33°44' W 118°17'0 0.4
2018-Jun-10 01:31N 33°44' W 118°17'0 0.4
2018-Jun-10 01:01N 33°44' W 118°17'0 0.0
2018-Jun-10 00:30N 33°44' W 118°17'0 0.8
2018-Jun-10 00:01N 33°44' W 118°16'0 0.7
2018-Jun-09 23:30N 33°44' W 118°17'0 0.0
2018-Jun-09 23:01N 33°44' W 118°17'0 0.3
2018-Jun-09 22:30N 33°44' W 118°17'0 0.3
2018-Jun-09 22:00N 33°44' W 118°17'0 0.0
2018-Jun-09 21:31N 33°44' W 118°17'0 0.2
2018-Jun-09 21:01N 33°44' W 118°17'0 0.2
2018-Jun-09 20:31N 33°44' W 118°17'0 0.0
2018-Jun-09 20:01N 33°44' W 118°17'0 0.2
2018-Jun-09 19:31N 33°44' W 118°17'0 0.2
2018-Jun-09 19:01N 33°44' W 118°17'0 0.0
2018-Jun-09 18:31N 33°44' W 118°17'0 0.0
2018-Jun-09 18:01N 33°44' W 118°17'0 0.0
2018-Jun-09 17:31N 33°44' W 118°17'0 0.6
2018-Jun-09 17:00N 33°44' W 118°17'0 0.0
2018-Jun-09 02:54N 33°44' W 118°17'0 0.0
2018-Jun-09 02:30N 33°44' W 118°17'1 2.0
2018-Jun-09 02:00N 33°43' W 118°16'1 2.0
2018-Jun-09 01:30N 33°44' W 118°17'1 2.3
2018-Jun-09 01:00N 33°43' W 118°16'1 2.5
2018-Jun-09 00:31N 33°44' W 118°17'1 2.3
2018-Jun-09 00:00N 33°43' W 118°16'1 2.3
2018-Jun-08 23:31N 33°44' W 118°17'1 2.8
2018-Jun-08 23:01N 33°43' W 118°16'1 2.8
2018-Jun-08 22:30N 33°44' W 118°17'1 2.0
2018-Jun-08 22:00N 33°43' W 118°16'1 2.0
2018-Jun-08 21:30N 33°44' W 118°17'1 2.6
2018-Jun-08 21:00N 33°43' W 118°16'1 2.5
2018-Jun-08 20:30N 33°44' W 118°17'1 2.9
2018-Jun-08 20:00N 33°43' W 118°16'1 2.9
2018-Jun-08 19:30N 33°44' W 118°17'0 0.7
2018-Jun-08 19:01N 33°44' W 118°17'2 3.2
2018-Jun-08 18:30N 33°43' W 118°16'2 3.2
2018-Jun-08 18:01N 33°44' W 118°17'0 0.0
2018-Jun-08 17:30N 33°44' W 118°17'  
Track history (hours):
 
Tides and Currents Weather Stations Pressure Air Temp Water Temp Dewpoint Dewpoint Depression Visibility Wind Speed Wind Dir Waves Ship Positions

Harbor King

Owner: Golden Gate Scenic Steamship Corp, SAN FRANCISCO, CA. More information available from US FCC via Universal Licensing System and Coast Guard Vessel Documentation Center.

Last reported at 2018-Jun-18 03:45 UTC. Time now 2018-Jun-21 22:09 UTC.
Position N 33°44' W 118°17'.

Length 20 m; draft 2 m.

Type: Passenger vessel. MMSI: 366975770.

Date/timePositionNaut miles runAvg speedWind from/ knotsBaromVisibWave heightAir tempDewpointWater temp
2018-Jun-18 03:45N 33°44' W 118°17'1 2.9
2018-Jun-18 03:30N 33°45' W 118°16'1 1.5
2018-Jun-18 03:00N 33°44' W 118°17'1 1.7
2018-Jun-18 02:30N 33°43' W 118°16'1 1.7
2018-Jun-18 02:00N 33°44' W 118°17'0 0.6
2018-Jun-18 01:30N 33°44' W 118°17'0 0.6
2018-Jun-18 01:00N 33°44' W 118°17'0 0.0
2018-Jun-18 00:30N 33°44' W 118°17'1 2.6
2018-Jun-18 00:00N 33°43' W 118°16'1 2.7
2018-Jun-17 23:30N 33°44' W 118°17'1 2.8
2018-Jun-17 23:00N 33°43' W 118°16'1 2.8
2018-Jun-17 22:30N 33°44' W 118°17'1 2.8
2018-Jun-17 22:00N 33°43' W 118°16'1 2.8
2018-Jun-17 21:30N 33°44' W 118°17'1 2.8
2018-Jun-17 21:00N 33°43' W 118°16'1 2.8
2018-Jun-17 20:30N 33°44' W 118°17'0 0.0
2018-Jun-17 20:00N 33°44' W 118°17'1 2.9
2018-Jun-17 19:30N 33°43' W 118°16'1 2.9
2018-Jun-17 19:00N 33°44' W 118°17'1 2.8
2018-Jun-17 18:30N 33°43' W 118°16'1 2.9
2018-Jun-17 18:00N 33°44' W 118°17'0 0.0
2018-Jun-17 17:30N 33°44' W 118°17'0 0.0
2018-Jun-17 17:00N 33°44' W 118°17'2 3.9
2018-Jun-17 16:30N 33°43' W 118°15'2 0.2
2018-Jun-17 03:21N 33°44' W 118°17'0 0.0
2018-Jun-17 03:00N 33°44' W 118°17'1 2.2
2018-Jun-17 02:30N 33°43' W 118°16'1 2.2
2018-Jun-17 02:00N 33°44' W 118°17'0 0.0
2018-Jun-17 01:30N 33°44' W 118°17'1 2.6
2018-Jun-17 01:00N 33°43' W 118°16'1 2.6
2018-Jun-17 00:30N 33°44' W 118°17'0 0.0
2018-Jun-17 00:00N 33°44' W 118°17'1 2.9
2018-Jun-16 23:30N 33°43' W 118°16'1 2.8
2018-Jun-16 23:00N 33°44' W 118°17'0 0.0
2018-Jun-16 22:30N 33°44' W 118°17'1 2.8
2018-Jun-16 22:00N 33°43' W 118°16'1 2.8
2018-Jun-16 21:30N 33°44' W 118°17'0 0.0
2018-Jun-16 21:00N 33°44' W 118°17'1 2.8
2018-Jun-16 20:30N 33°43' W 118°16'1 2.8
2018-Jun-16 20:00N 33°44' W 118°17'1 1.8
2018-Jun-16 19:30N 33°43' W 118°16'1 1.8
2018-Jun-16 19:00N 33°44' W 118°17'1 2.8
2018-Jun-16 18:30N 33°43' W 118°16'1 2.9
2018-Jun-16 18:00N 33°44' W 118°17'4 7.5
2018-Jun-16 17:30N 33°40' W 118°15'2 4.2
2018-Jun-16 16:59N 33°43' W 118°15'2 3.8
2018-Jun-16 16:30N 33°44' W 118°17'  
2018-Jun-11 04:05N 33°44' W 118°17'0 0.0
2018-Jun-11 04:00N 33°44' W 118°17'1 1.6
2018-Jun-11 03:30N 33°44' W 118°16'1 1.6
2018-Jun-11 03:00N 33°44' W 118°17'1 1.5
2018-Jun-11 02:30N 33°43' W 118°16'1 1.6
2018-Jun-11 02:00N 33°44' W 118°17'0 0.6
2018-Jun-11 01:30N 33°44' W 118°17'0 0.5
2018-Jun-11 01:00N 33°44' W 118°17'0 0.0
2018-Jun-11 00:30N 33°44' W 118°17'1 2.9
2018-Jun-11 00:00N 33°43' W 118°16'1 2.9
2018-Jun-10 23:30N 33°44' W 118°17'1 2.7
2018-Jun-10 23:00N 33°43' W 118°16'1 2.7
2018-Jun-10 22:30N 33°44' W 118°17'1 2.8
2018-Jun-10 22:00N 33°43' W 118°16'1 2.7
2018-Jun-10 21:30N 33°44' W 118°17'1 2.6
2018-Jun-10 21:00N 33°43' W 118°16'1 2.6
2018-Jun-10 20:30N 33°44' W 118°17'0 0.0
2018-Jun-10 20:00N 33°44' W 118°17'1 2.8
2018-Jun-10 19:30N 33°43' W 118°16'1 2.9
2018-Jun-10 19:00N 33°44' W 118°17'1 2.8
2018-Jun-10 18:30N 33°43' W 118°16'1 0.1
2018-Jun-10 03:27N 33°44' W 118°17'1 1.5
2018-Jun-10 03:00N 33°45' W 118°16'1 2.0
2018-Jun-10 02:31N 33°44' W 118°16'0 0.7
2018-Jun-10 02:01N 33°44' W 118°17'0 0.4
2018-Jun-10 01:31N 33°44' W 118°17'0 0.4
2018-Jun-10 01:01N 33°44' W 118°17'0 0.0
2018-Jun-10 00:30N 33°44' W 118°17'0 0.8
2018-Jun-10 00:01N 33°44' W 118°16'0 0.7
2018-Jun-09 23:30N 33°44' W 118°17'0 0.0
2018-Jun-09 23:01N 33°44' W 118°17'0 0.3
2018-Jun-09 22:30N 33°44' W 118°17'0 0.3
2018-Jun-09 22:00N 33°44' W 118°17'0 0.0
2018-Jun-09 21:31N 33°44' W 118°17'0 0.2
2018-Jun-09 21:01N 33°44' W 118°17'0 0.2
2018-Jun-09 20:31N 33°44' W 118°17'0 0.0
2018-Jun-09 20:01N 33°44' W 118°17'0 0.2
2018-Jun-09 19:31N 33°44' W 118°17'0 0.2
2018-Jun-09 19:01N 33°44' W 118°17'0 0.0
2018-Jun-09 18:31N 33°44' W 118°17'0 0.0
2018-Jun-09 18:01N 33°44' W 118°17'0 0.0
2018-Jun-09 17:31N 33°44' W 118°17'0 0.6
2018-Jun-09 17:00N 33°44' W 118°17'0 0.0
2018-Jun-09 02:54N 33°44' W 118°17'0 0.0
2018-Jun-09 02:30N 33°44' W 118°17'1 2.0
2018-Jun-09 02:00N 33°43' W 118°16'1 2.0
2018-Jun-09 01:30N 33°44' W 118°17'1 2.3
2018-Jun-09 01:00N 33°43' W 118°16'1 2.5
2018-Jun-09 00:31N 33°44' W 118°17'1 2.3
2018-Jun-09 00:00N 33°43' W 118°16'1 2.3
2018-Jun-08 23:31N 33°44' W 118°17'1 2.8
2018-Jun-08 23:01N 33°43' W 118°16'1 2.8
2018-Jun-08 22:30N 33°44' W 118°17'1 2.0
2018-Jun-08 22:00N 33°43' W 118°16'1 2.0
2018-Jun-08 21:30N 33°44' W 118°17'1 2.6
2018-Jun-08 21:00N 33°43' W 118°16'1 2.5
2018-Jun-08 20:30N 33°44' W 118°17'1 2.9
2018-Jun-08 20:00N 33°43' W 118°16'1 2.9
2018-Jun-08 19:30N 33°44' W 118°17'0 0.7
2018-Jun-08 19:01N 33°44' W 118°17'2 3.2
2018-Jun-08 18:30N 33°43' W 118°16'2 3.2
2018-Jun-08 18:01N 33°44' W 118°17'0 0.0
2018-Jun-08 17:30N 33°44' W 118°17'  

Dump ship's entire track history